Date,TemperatureHighF,TemperatureAvgF,TemperatureLowF,DewpointHighF,DewpointAvgF,DewpointLowF,HumidityHigh,HumidityAvg,HumidityLow,PressureMaxIn,PressureMinIn,WindSpeedMaxMPH,WindSpeedAvgMPH,GustSpeedMaxMPH,PrecipitationSumIn
2013-1-31,15,13,12,14,11,10,94,93,93,29.86,29.55,0,0,0,0.00
2013-2-1,16,3,-1,15,1,-3,94,90,89,30.41,29.83,0,0,0,0.00
2013-2-2,19,11,0,17,9,-2,94,92,90,30.43,30.07,0,0,0,0.00
2013-2-3,17,14,9,16,12,7,94,93,92,30.08,29.85,0,0,0,0.00
2013-2-4,27,17,7,24,14,5,94,90,85,30.14,29.99,0,0,0,0.00
2013-2-5,29,28,27,25,24,23,87,84,80,29.99,29.85,0,0,0,0.00
2013-2-6,28,24,21,25,22,19,94,91,85,30.32,29.93,0,0,0,0.00
2013-2-7,32,27,23,30,25,21,94,91,82,30.35,30.09,0,0,0,0.00
2013-2-8,32,26,16,26,22,15,94,86,75,30.10,29.82,0,0,0,0.00
2013-2-9,31,18,10,25,16,8,95,92,76,30.47,30.09,0,0,0,0.00
2013-2-10,41,30,22,26,18,13,94,61,33,30.46,30.11,0,0,0,0.00
2013-2-11,47,39,29,42,28,17,92,65,39,30.12,29.83,0,0,0,0.00
2013-2-12,39,29,22,23,19,13,91,67,40,30.04,29.87,0,0,0,0.00
2013-2-13,36,29,22,25,13,-14,92,60,11,29.98,29.56,0,0,0,0.00
2013-2-14,31,24,16,29,22,14,93,90,81,30.06,29.78,15,4,0,0.00
2013-2-15,37,28,21,30,25,18,93,90,76,30.07,29.95,13,9,0,0.00
2013-2-16,20,14,9,18,12,7,93,93,92,29.98,29.89,14,6,0,0.00
2013-2-17,10,3,-1,8,1,-3,92,90,89,30.33,29.91,18,14,0,0.00
2013-2-18,38,22,4,25,14,0,91,70,54,30.50,30.16,16,9,0,0.00
2013-2-19,30,26,17,29,23,12,97,88,74,30.16,29.73,20,12,0,0.00
2013-2-20,17,11,8,14,9,5,93,90,81,30.22,29.88,18,10,0,0.00
2013-2-21,29,16,4,21,11,2,93,82,63,30.39,30.20,17,7,0,0.00
2013-2-22,34,26,19,30,21,12,97,81,62,30.38,30.11,17,8,0,0.00
2013-2-23,47,38,31,37,32,25,93,77,55,30.11,29.77,14,8,0,0.00
2013-2-24,33,26,16,29,21,14,93,83,62,30.08,29.78,12,7,0,0.00
2013-2-25,39,24,13,21,16,9,93,74,41,30.19,30.08,14,4,0,0.00
2013-2-26,34,26,20,30,22,16,97,84,71,30.14,29.64,18,5,0,0.00
2013-2-27,33,28,23,25,23,21,90,83,71,29.72,29.60,1,0,0,0.00
2013-2-28,23,20,18,21,18,16,93,93,91,29.83,29.65,0,0,0,0.00
2013-3-1,21,19,15,19,17,13,94,93,92,29.94,29.82,0,0,0,0.00
2013-3-2,17,14,12,16,12,10,94,93,93,29.98,29.90,0,0,0,0.00
2013-3-3,14,11,8,12,9,6,93,93,92,30.05,29.94,0,0,0,0.00
2013-3-4,28,14,7,25,13,5,94,92,87,30.21,30.04,0,0,0,0.00
2013-3-5,34,29,17,26,23,15,94,77,71,30.19,29.60,0,0,0,0.00
2013-3-6,25,21,17,22,19,15,95,92,88,30.14,29.59,1,0,0,0.00
2013-3-7,23,21,20,21,19,18,93,92,91,30.27,30.12,0,0,0,0.00
2013-3-8,22,20,16,20,18,14,94,93,92,30.46,30.23,0,0,0,0.00
2013-3-9,39,30,22,34,24,20,92,76,55,30.46,30.34,6,1,0,0.00
2013-3-10,50,40,35,31,27,24,67,59,43,30.35,30.14,14,8,0,0.00
2013-3-11,42,40,38,37,32,27,91,74,62,30.14,29.83,14,11,0,0.00
2013-3-12,43,30,22,34,24,20,91,79,68,29.98,29.75,11,2,0,0.00
2013-3-13,24,19,13,22,17,11,93,92,89,30.11,29.94,0,0,0,0.00
2013-3-14,24,15,9,20,12,7,93,87,71,30.29,30.11,16,3,0,0.00
2013-3-15,40,29,18,31,22,11,88,77,68,30.24,29.92,19,14,0,0.00
2013-3-16,46,40,34,40,33,27,92,77,66,29.93,29.68,19,13,0,0.00
2013-3-17,36,31,29,30,25,22,92,77,71,30.11,29.84,15,7,0,0.00
2013-3-18,38,28,22,31,23,20,96,82,70,30.11,29.88,13,5,0,0.00
2013-3-19,39,31,22,31,18,3,92,62,33,29.94,29.78,27,16,0,0.00
2013-3-20,31,23,16,20,11,5,91,63,45,30.02,29.83,20,11,0,0.00
2013-3-21,18,9,4,16,7,2,92,91,86,30.04,29.75,13,9,0,0.00
2013-3-22,27,16,7,17,10,5,92,80,58,30.13,30.03,14,10,0,0.00
2013-3-23,37,26,18,17,13,10,74,59,40,30.13,30.01,12,8,0,0.00
2013-3-24,27,24,22,21,18,13,90,77,56,30.01,29.50,18,11,0,0.00
2013-3-25,22,20,19,21,18,17,94,91,88,29.77,29.49,18,7,0,0.00
2013-3-26,23,21,20,20,19,18,92,91,88,30.14,29.77,12,6,0,0.00
2013-3-27,22,20,18,20,18,16,94,92,90,30.26,30.10,10,7,0,0.00
2013-3-28,24,22,18,22,19,16,95,91,88,30.35,30.22,12,8,0,0.00
2013-3-29,31,27,23,29,23,20,92,87,75,30.36,30.27,10,7,0,0.00
2013-3-30,45,35,27,29,24,22,90,69,40,30.29,30.09,10,5,0,0.00
2013-3-31,40,37,32,31,27,-100,91,69,56,30.09,29.75,15,9,0,0.00
2013-4-1,35,30,22,31,24,15,92,76,68,29.98,29.79,15,12,0,0.00
2013-4-2,30,22,15,16,12,7,86,67,41,30.23,29.98,13,9,0,0.00
2013-4-3,33,23,16,12,10,6,80,58,34,30.39,30.23,14,8,0,0.00
2013-4-4,34,28,19,25,13,0,86,54,28,30.40,30.08,12,5,0,0.00
2013-4-5,45,36,28,31,25,21,92,64,46,30.09,29.97,11,6,0,0.00
2013-4-6,53,39,27,27,12,-16,72,37,11,30.24,30.06,9,4,0,0.00
2013-4-7,59,47,36,38,32,21,73,57,45,30.17,30.02,17,10,0,0.00
2013-4-8,63,54,46,44,40,34,69,60,46,30.06,29.96,13,8,0,0.00
2013-4-9,70,59,50,51,47,42,87,66,49,30.10,29.97,16,10,0,0.00
2013-4-10,75,63,53,53,48,39,85,59,38,29.98,29.83,16,11,0,0.00
2013-4-11,71,62,56,53,48,34,79,60,26,29.83,29.59,9,6,0,0.00
2013-4-12,57,50,35,52,41,30,90,71,50,29.73,29.47,21,12,0,0.00
2013-4-13,51,40,31,31,27,19,91,65,34,30.01,29.73,20,13,0,0.00
2013-4-14,62,48,36,36,31,24,78,55,30,30.12,30.01,16,9,0,0.00
2013-4-15,52,43,40,40,33,30,89,67,49,30.21,30.00,12,8,0,0.00
2013-4-16,69,54,44,54,44,34,91,69,50,30.29,30.13,11,7,0,0.00
2013-4-17,65,58,51,55,51,42,90,78,60,30.18,30.05,11,6,0,0.00
2013-4-18,59,55,52,54,48,41,90,79,64,30.06,29.88,13,8,0,0.00
2013-4-19,55,47,31,50,39,26,91,73,65,29.88,29.58,16,11,0,0.00
2013-4-20,41,31,23,27,22,19,93,73,46,30.38,29.74,21,13,0,0.00
2013-4-21,48,35,24,28,22,19,82,62,35,30.53,30.37,7,3,0,0.00
2013-4-22,48,36,27,28,24,17,84,63,30,30.47,30.33,13,7,0,0.00
2013-4-23,63,46,31,39,32,25,91,62,25,30.33,30.05,11,6,0,0.00
2013-4-24,65,50,32,49,42,25,91,77,50,30.05,29.80,22,11,0,0.00
2013-4-25,50,35,25,37,23,10,92,65,21,30.37,29.98,14,8,0,0.00
2013-4-26,55,42,31,32,26,21,88,56,30,30.44,30.35,9,6,0,0.00
2013-4-27,61,49,42,40,32,24,87,52,29,30.38,30.18,8,4,0,0.00
2013-4-28,44,42,40,41,33,-100,92,76,69,30.18,30.03,13,8,0,0.00
2013-4-29,60,46,40,51,38,31,90,73,65,30.06,29.98,10,5,0,0.00
2013-4-30,64,50,45,50,42,34,91,73,55,30.17,30.01,13,4,0,0.00
2013-5-1,56,48,43,47,38,33,91,67,53,30.31,30.16,14,10,0,0.00
2013-5-2,63,50,40,45,40,27,88,69,47,30.31,30.22,15,7,0,0.00
2013-5-3,53,45,38,41,34,21,89,65,38,30.22,30.15,23,13,0,0.00
2013-5-4,51,42,35,40,33,18,91,71,27,30.16,30.08,24,17,0,0.00
2013-5-5,54,44,35,41,29,13,91,61,22,30.10,29.99,28,19,0,0.00
2013-5-6,45,43,39,36,34,29,79,69,66,30.01,29.92,30,23,0,0.00
2013-5-7,47,45,42,42,36,32,89,72,67,29.97,29.88,18,8,0,0.00
2013-5-8,53,43,40,47,37,31,92,77,68,30.01,29.88,8,5,0,0.00
2013-5-9,62,51,44,51,42,35,90,71,53,30.07,29.96,16,9,0,0.00
2013-5-10,67,55,51,54,47,-100,90,78,59,30.06,29.83,14,8,0,0.00
2013-5-11,56,50,44,52,42,33,91,75,66,29.83,29.76,18,12,0,0.00
2013-5-12,43,36,31,33,26,-100,92,71,56,30.06,29.76,15,11,0,0.00
2013-5-13,40,31,27,30,25,21,91,79,53,30.22,30.01,13,9,0,0.00
2013-5-14,56,42,28,39,28,25,92,62,34,30.26,30.04,14,7,0,0.00
2013-5-15,75,62,53,53,49,42,91,65,35,30.04,29.81,21,16,0,0.00
2013-5-16,64,51,50,55,28,-100,90,76,62,29.96,29.77,21,12,0,0.00
2013-5-17,64,56,49,56,45,-100,91,78,60,30.11,29.96,9,4,0,0.00
2013-5-18,67,57,54,58,51,43,90,82,65,30.10,30.03,7,4,0,0.00
2013-5-19,56,54,53,46,44,42,69,67,65,30.09,30.01,8,5,0,0.00
2013-5-20,69,60,54,62,53,44,91,79,68,30.07,29.96,9,5,0,0.00
2013-5-21,76,65,57,61,56,51,92,76,45,29.96,29.85,12,6,0,0.00
2013-5-22,72,61,55,61,54,49,91,78,66,29.90,29.79,12,7,0,0.00
2013-5-23,67,56,49,55,49,40,92,77,54,29.84,29.75,14,8,0,0.00
2013-5-24,49,37,30,40,30,25,93,78,71,30.20,29.76,19,13,0,0.00
2013-5-25,48,37,24,32,25,13,93,67,36,30.34,30.20,16,10,0,0.00
2013-5-26,55,44,35,31,26,18,82,52,25,30.30,30.23,12,8,0,0.00
2013-5-27,61,50,42,50,36,23,90,59,44,30.27,30.16,10,4,0,0.00
2013-5-28,69,60,52,56,52,49,92,76,56,30.17,30.04,18,10,0,0.00
2013-5-29,74,64,57,56,54,51,91,73,44,30.13,30.06,16,9,0,0.00
2013-5-30,79,68,59,60,55,51,89,67,40,30.16,30.06,9,5,0,0.00
2013-5-31,78,66,57,60,53,43,91,65,33,30.09,29.98,11,7,0,0.00
2013-6-1,77,66,59,62,57,54,90,73,49,29.99,29.87,10,7,0,0.00
2013-6-2,66,59,54,60,53,-100,91,84,69,29.86,29.78,16,9,0,0.00
2013-6-3,64,56,51,55,50,43,92,82,66,29.96,29.81,12,7,0,0.00
2013-6-4,69,56,46,50,44,39,91,67,38,30.09,29.96,10,6,0,0.00
2013-6-5,67,58,53,58,51,43,91,79,68,30.09,29.95,10,6,0,0.00
2013-6-6,57,54,52,47,44,42,71,69,68,29.98,29.80,10,6,0,0.00
2013-6-7,60,57,50,51,47,41,71,70,69,29.82,29.64,10,4,0,0.00
2013-6-8,69,57,47,54,48,38,91,71,56,30.09,29.78,10,6,0,0.00
2013-6-9,74,64,57,59,54,48,92,72,41,30.09,29.99,8,4,0,0.00
2013-6-10,64,58,54,56,51,47,92,78,68,30.00,29.77,14,8,0,0.00
2013-6-11,62,55,53,58,48,43,92,76,69,29.95,29.81,15,11,0,0.00
2013-6-12,72,62,58,65,55,47,91,77,67,29.95,29.82,12,9,0,0.00
2013-6-13,65,58,49,62,52,39,91,81,70,29.82,29.50,23,14,0,0.00
2013-6-14,59,51,45,53,44,37,93,80,71,30.06,29.70,11,7,0,0.00
2013-6-15,68,56,49,52,50,46,93,79,53,30.12,30.03,10,6,0,0.00
2013-6-16,64,58,54,61,54,48,92,86,70,30.05,29.93,14,9,0,0.00
2013-6-17,72,62,56,61,54,46,92,77,67,29.97,29.88,11,7,0,0.00
2013-6-18,61,58,53,59,54,47,93,88,80,29.91,29.78,9,4,0,0.00
2013-6-19,69,59,53,57,52,46,92,76,61,30.08,29.89,7,4,0,0.00
2013-6-20,74,61,54,56,52,46,92,74,52,30.16,30.07,7,4,0,0.00
2013-6-22,71,67,62,60,57,53,84,71,55,30.19,30.08,5,3,0,0.00
2013-6-23,76,65,58,61,57,53,92,77,53,30.13,30.04,8,3,0,0.00
2013-6-24,74,65,61,64,59,53,92,81,66,30.11,30.01,8,4,0,0.00
2013-6-25,77,66,59,63,59,51,92,79,60,30.04,29.91,12,7,0,0.00
2013-6-26,72,64,61,63,59,52,92,84,70,29.92,29.80,15,9,0,0.00
2013-6-27,62,60,58,60,53,49,92,78,70,29.83,29.65,14,9,0,0.00
2013-6-28,71,62,55,62,54,49,90,74,60,29.67,29.50,20,13,0,0.00
2013-6-29,69,60,52,60,54,49,93,81,60,29.69,29.51,12,7,0,0.00
2013-6-30,76,65,58,61,57,53,92,76,49,29.76,29.67,8,3,0,0.00
2013-7-1,71,61,56,62,56,49,93,83,70,29.92,29.74,8,5,0,0.00
2013-7-2,65,61,59,61,56,51,93,83,73,30.09,29.91,9,6,0,0.00
2013-7-3,67,61,59,63,55,50,93,80,72,30.19,30.09,11,6,0,0.00
2013-7-4,72,64,59,65,58,51,93,80,71,30.22,30.11,11,6,0,0.00
2013-7-5,72,64,60,66,59,52,93,85,76,30.16,30.09,11,8,0,0.00
2013-7-6,75,65,60,65,61,56,93,86,66,30.15,30.04,10,6,0,0.00
2013-7-7,70,62,58,65,58,51,93,87,75,30.08,29.98,12,7,0,0.00
2013-7-8,68,60,54,62,54,47,94,84,73,30.14,30.04,12,9,0,0.00
2013-7-9,74,65,60,64,60,56,93,86,65,30.14,30.01,11,8,0,0.00
2013-7-10,75,63,58,67,59,-100,93,88,74,30.03,29.85,12,8,0,0.00
2013-7-11,70,62,57,63,57,49,93,85,75,29.89,29.84,11,4,0,0.00
2013-7-12,62,57,53,57,51,45,94,83,74,30.04,29.87,12,8,0,0.00
2013-7-13,66,59,55,62,53,47,93,80,72,30.19,30.04,15,9,0,0.00
2013-7-14,74,64,58,63,58,51,93,82,66,30.29,30.18,17,8,0,0.00
2013-7-15,76,67,60,66,60,53,92,77,62,30.30,30.21,8,3,0,0.00
2013-7-16,79,68,63,67,63,60,93,83,66,30.24,30.18,8,4,0,0.00
2013-7-17,73,68,64,68,64,61,93,88,76,30.22,30.11,8,5,0,0.00
2013-7-18,80,69,64,68,65,62,93,86,67,30.14,30.02,7,4,0,0.00
2013-7-19,81,68,59,69,64,54,93,87,59,30.02,29.88,16,7,0,0.00
2013-7-20,77,66,62,67,59,53,93,80,64,29.92,29.83,12,9,0,0.00
2013-7-21,72,64,59,66,60,52,93,87,70,29.95,29.86,11,5,0,0.00
2013-7-22,75,64,60,65,58,53,93,81,68,29.91,29.73,10,5,0,0.00
2013-7-23,70,62,58,63,56,50,93,79,72,29.77,29.69,15,11,0,0.00
2013-7-24,70,61,52,60,54,49,93,79,68,29.86,29.70,12,7,0,0.00
2013-7-25,67,57,50,54,51,46,94,83,60,30.03,29.84,8,3,0,0.00
2013-7-26,72,61,51,57,52,48,92,75,51,30.06,29.99,6,3,0,0.00
2013-7-27,61,58,56,58,52,48,94,81,73,29.99,29.87,10,6,0,0.00
2013-7-28,66,59,52,57,52,46,93,80,70,29.98,29.85,15,8,0,0.00
2013-7-29,62,53,47,50,47,44,94,83,61,30.21,29.98,10,7,0,0.00
2013-7-30,69,58,51,56,52,48,93,81,57,30.22,30.13,7,4,0,0.00
2013-7-31,64,57,53,58,52,47,93,84,74,30.13,29.96,9,5,0,0.00
2013-8-1,63,58,56,60,52,48,93,80,74,29.96,29.87,13,8,0,0.00
2013-8-2,69,59,52,56,51,44,92,76,55,30.01,29.89,11,8,0,0.00
2013-8-3,66,58,55,59,53,48,93,84,73,30.01,29.93,14,8,0,0.00
2013-8-4,61,55,51,53,50,45,93,81,72,30.04,29.94,9,5,0,0.00
2013-8-5,67,56,48,54,49,45,94,79,55,30.09,29.98,9,3,0,0.00
2013-8-6,74,62,53,61,55,47,93,79,53,29.99,29.94,7,4,0,0.00
2013-8-7,72,63,60,66,58,51,93,83,73,29.98,29.92,10,6,0,0.00
2013-8-8,72,63,60,67,56,51,93,77,72,29.99,29.93,11,6,0,0.00
2013-8-9,68,63,62,65,56,53,94,78,72,29.97,29.90,19,12,0,0.00
2013-8-10,71,63,58,65,56,49,94,79,71,30.05,29.97,11,5,0,0.00
2013-8-11,70,64,59,65,59,52,94,86,74,30.06,29.98,7,4,0,0.00
2013-8-12,74,63,59,63,56,50,94,79,67,30.02,29.88,9,6,0,0.00
2013-8-13,65,59,54,61,52,-100,94,82,73,29.89,29.75,16,8,0,0.00
2013-8-14,54,47,41,47,39,-100,94,83,76,30.13,29.83,8,5,0,0.00
2013-8-15,64,47,43,50,33,-100,94,77,56,30.19,30.10,8,4,0,0.00
2013-8-16,65,54,47,53,45,-100,93,78,60,30.14,30.09,6,3,0,0.00
2013-8-17,61,53,48,54,49,44,94,86,72,30.19,30.14,17,9,0,0.00
2013-8-18,61,55,52,59,48,-100,94,79,73,30.20,30.13,17,6,0,0.00
2013-8-19,69,56,56,61,40,-100,94,78,71,30.15,30.05,9,6,0,0.00
2013-8-20,74,62,55,62,55,-100,94,82,55,30.15,30.07,7,4,0,0.00
2013-8-21,69,62,56,65,59,53,94,90,79,30.14,30.05,13,5,0,0.00
2013-8-22,70,61,56,63,56,51,93,84,74,30.09,29.99,12,8,0,0.00
2013-8-23,63,58,52,60,54,49,94,88,75,30.10,29.95,13,7,0,0.00
2013-8-24,67,58,51,55,51,48,92,80,59,30.29,30.10,10,5,0,0.00
2013-8-25,70,57,52,57,50,-100,93,81,59,30.35,30.25,6,4,0,0.00
2013-8-26,71,60,53,58,54,49,93,80,62,30.28,30.08,11,7,0,0.00
2013-8-27,66,61,60,63,55,51,93,79,72,30.08,29.98,16,10,0,0.00
2013-8-28,68,65,63,64,58,54,94,80,72,29.88,29.80,15,11,0,0.00
2013-8-29,70,64,60,65,58,52,94,81,72,29.98,29.83,13,5,0,0.00
2013-8-30,76,64,58,65,58,50,94,80,68,29.99,29.85,9,5,0,0.00
2013-8-31,74,65,60,65,59,54,93,81,64,29.88,29.77,12,7,0,0.00
2013-9-1,71,63,60,64,58,-100,94,87,73,29.82,29.75,10,5,0,0.00
2013-9-2,73,64,59,64,57,50,94,81,66,29.82,29.75,14,9,0,0.00
2013-9-3,66,59,52,58,53,48,94,79,68,29.96,29.75,13,8,0,0.00
2013-9-4,71,57,48,54,48,42,94,75,38,30.09,29.95,9,6,0,0.00
2013-9-5,64,57,51,57,52,34,94,84,45,30.11,30.05,13,9,0,0.00
2013-9-6,70,57,49,54,47,33,94,74,26,30.16,30.08,6,3,0,0.00
2013-9-7,69,58,52,52,48,35,93,71,32,30.08,29.95,10,8,0,0.00
2013-9-8,69,60,54,61,55,-100,93,86,73,30.01,29.92,10,6,0,0.00
2013-9-9,70,62,57,63,57,50,93,84,76,30.09,30.01,9,4,0,0.00
2013-9-10,77,66,60,65,59,51,93,80,65,30.17,30.09,10,6,0,0.00
2013-9-11,77,65,62,66,62,58,93,88,63,30.15,30.00,8,6,0,0.00
2013-9-12,69,61,55,66,54,47,92,78,72,30.02,29.77,15,9,0,0.00
2013-9-13,56,51,43,49,44,41,94,79,60,29.93,29.71,13,9,0,0.00
2013-9-14,58,46,36,46,40,33,95,82,54,30.16,29.93,8,4,0,0.00
2013-9-15,63,51,45,53,45,-100,94,84,65,30.19,30.08,13,8,0,0.00
2013-9-16,54,50,43,52,45,40,95,85,76,30.23,30.03,15,8,0,0.00
2013-9-17,57,49,43,48,44,39,94,83,66,30.35,30.23,10,5,0,0.00
2013-9-18,52,44,42,44,40,38,94,87,80,30.26,30.14,7,4,0,0.00
2013-9-19,66,57,52,56,51,45,94,80,65,30.15,30.02,8,5,0,0.00
2013-9-20,67,60,56,63,55,49,94,85,74,30.03,29.88,7,3,0,0.00
2013-9-21,57,54,48,49,47,41,78,76,74,29.88,29.64,12,7,0,0.00
2013-9-22,55,47,43,48,41,-100,95,82,74,29.94,29.73,10,6,0,0.00
2013-9-23,58,47,39,47,42,37,95,82,61,30.06,29.94,9,4,0,0.00
2013-9-24,67,56,45,51,48,43,94,79,50,30.06,29.92,14,7,0,0.00
2013-9-25,62,53,48,53,49,45,94,86,69,29.94,29.83,6,2,0,0.00
2013-9-26,62,54,47,53,48,44,94,80,59,30.04,29.88,7,4,0,0.00
2013-9-27,65,54,48,51,46,40,94,73,53,30.14,30.03,7,3,0,0.00
2013-9-28,55,49,44,50,45,40,94,88,75,30.22,30.13,7,4,0,0.00
2013-9-29,61,49,41,51,44,-100,94,84,68,30.17,30.05,7,2,0,0.00
2013-9-30,62,53,47,52,50,45,94,89,68,30.05,29.99,7,3,0,0.00
2013-10-1,53,52,52,51,50,50,94,94,93,30.07,30.03,10,7,0,0.00
2013-10-2,65,57,52,55,51,45,94,80,66,30.12,30.06,14,7,0,0.00
2013-10-3,71,61,56,57,54,51,94,80,60,30.10,30.01,6,2,0,0.00
2013-10-4,71,61,56,59,56,51,94,84,65,30.09,30.01,10,6,0,0.00
2013-10-5,71,62,57,60,56,53,94,82,62,30.08,29.99,11,6,0,0.00
2013-10-6,69,62,57,60,57,54,94,85,63,30.00,29.80,10,7,0,0.00
2013-10-7,57,47,39,55,44,36,95,87,78,30.06,29.68,17,10,0,0.00
2013-10-8,54,44,35,40,36,32,95,77,46,30.28,30.06,18,8,0,0.00
2013-10-9,52,45,40,42,31,23,94,60,36,30.27,30.19,20,12,0,0.00
2013-10-10,58,52,47,54,47,41,94,82,75,30.19,29.98,13,8,0,0.00
2013-10-11,53,50,49,50,44,42,94,79,75,30.00,29.93,8,5,0,0.00
2013-10-12,58,53,49,56,46,42,94,80,75,30.11,29.97,10,6,0,0.00
2013-10-13,56,52,50,54,45,-100,94,81,75,30.23,30.10,9,5,0,0.00
2013-10-14,60,53,50,56,48,43,94,82,75,30.24,30.15,7,3,0,0.00
2013-10-15,58,53,49,50,44,34,95,74,51,30.18,30.03,8,5,0,0.00
2013-10-16,59,54,49,52,48,32,94,80,50,30.03,29.89,9,6,0,0.00
2013-10-17,54,50,38,47,43,32,82,76,75,29.91,29.71,18,9,0,0.00
2013-10-18,53,42,33,37,34,29,95,73,49,30.02,29.82,16,8,0,0.00
2013-10-19,47,42,32,44,38,27,95,85,74,30.01,29.78,17,9,0,0.00
2013-10-20,47,36,28,36,27,-100,95,75,48,30.15,29.87,16,8,0,0.00
2013-10-21,56,46,38,39,34,25,81,64,42,30.14,29.92,10,7,0,0.00
2013-10-22,46,39,33,38,33,20,94,80,54,29.93,29.80,16,10,0,0.00
2013-10-23,35,30,25,30,25,17,94,83,51,29.95,29.70,14,8,0,0.00
2013-10-24,25,24,21,24,23,20,95,94,94,30.22,29.94,12,8,0,0.00
2013-10-25,26,23,22,24,22,21,95,95,93,30.42,30.21,10,6,0,0.00
2013-10-26,42,29,20,31,23,19,95,80,42,30.39,30.08,18,10,0,0.00
2013-10-27,44,35,30,34,29,-100,94,81,64,30.16,30.03,16,10,0,0.00
2013-10-28,53,42,38,42,36,-100,94,83,57,30.27,30.15,12,8,0,0.00
2013-10-29,56,46,40,44,38,35,94,77,53,30.33,30.24,8,5,0,0.00
2013-10-30,51,48,44,44,42,39,94,80,76,30.26,30.14,10,7,0,0.00
2013-10-31,55,51,48,52,47,43,94,86,75,30.17,29.68,14,9,0,0.00
2013-11-1,56,49,42,50,42,38,95,78,59,29.68,29.53,22,12,0,0.00
2013-11-2,45,38,31,39,34,27,94,86,65,29.92,29.64,17,11,0,0.00
2013-11-3,34,30,26,31,25,-100,95,85,79,30.44,29.92,12,6,0,0.00
2013-11-4,42,33,27,28,22,12,91,66,48,30.56,30.42,8,4,0,0.00
2013-11-5,47,39,33,37,27,20,94,65,42,30.55,30.42,13,7,0,0.00
2013-11-6,54,45,41,48,40,35,94,82,76,30.42,30.05,15,10,0,0.00
2013-11-7,47,36,24,45,32,23,95,86,77,30.06,29.89,16,12,0,0.00
2013-11-8,30,25,22,24,22,21,95,89,77,30.37,30.07,16,11,0,0.00
2013-11-9,48,36,25,22,15,-100,85,46,26,30.36,30.12,21,11,0,0.00
2013-11-10,40,33,25,32,26,22,91,77,57,30.27,30.04,22,15,0,0.00
2013-11-11,51,41,24,23,8,-9,93,33,10,30.34,30.05,16,11,0,0.00
2013-11-12,41,21,14,31,18,12,94,89,34,30.42,29.97,17,8,0,0.00
2013-11-13,24,15,10,19,11,-4,94,84,30,30.60,30.42,13,10,0,0.00
2013-11-14,45,36,24,15,6,-7,37,29,20,30.54,30.29,20,12,0,0.00
2013-11-15,48,40,35,36,17,1,93,43,20,30.29,30.18,17,8,0,0.00
2013-11-16,51,43,37,47,38,-100,95,86,78,30.25,30.16,9,6,0,0.00
2013-11-17,51,47,42,47,41,36,94,80,75,30.16,29.71,17,8,0,0.00
2013-11-18,45,37,27,40,29,23,95,76,47,29.93,29.76,22,17,0,0.00
2013-11-19,27,22,19,24,20,18,95,92,83,30.39,29.92,22,8,0,0.00
2013-11-20,33,25,20,23,18,13,94,75,49,30.51,30.40,16,10,0,0.00
2013-11-21,43,35,25,41,32,23,94,88,77,30.55,30.39,14,9,0,0.00
2013-11-22,48,45,37,46,39,31,94,79,76,30.39,30.03,17,12,0,0.00
2013-11-23,36,24,9,30,20,-100,95,89,79,30.20,30.04,10,1,0,0.00
2013-11-24,10,5,1,7,2,-1,92,90,83,30.62,30.20,0,0,0,0.00
2013-11-25,35,24,4,21,2,-12,94,44,18,30.64,30.34,17,7,0,0.00
2013-11-26,39,34,23,33,29,22,94,82,78,30.34,29.66,14,9,0,0.00
2013-11-27,34,17,7,28,16,5,95,93,79,30.09,29.58,13,1,0,0.00
2013-12-3,41,37,33,37,34,30,94,89,80,29.96,29.84,8,4,0,0.00
2013-12-4,51,44,37,46,39,33,94,85,76,30.03,29.95,9,6,0,0.00
2013-12-5,58,50,44,52,47,38,95,88,77,30.01,29.89,15,11,0,0.00
2013-12-6,52,44,31,44,38,25,85,77,75,29.99,29.83,16,8,0,0.00
2013-12-7,35,22,17,29,19,-100,95,93,79,30.50,30.00,0,0,0,0.00
2013-12-8,32,23,18,28,22,16,95,92,80,30.51,30.27,0,0,0,0.00
2013-12-9,42,35,24,36,30,19,95,82,72,30.24,30.01,19,12,0,0.00
2013-12-10,28,18,12,23,16,10,95,91,58,30.27,29.90,15,11,0,0.00
2013-12-11,27,17,9,17,12,7,93,82,57,30.47,30.27,16,13,0,0.00
2013-12-12,16,10,4,14,5,1,93,82,58,30.42,30.33,19,12,0,0.00
2013-12-13,27,19,10,14,8,3,76,63,51,30.42,30.36,17,12,0,0.00
2013-12-14,36,28,24,30,23,-100,94,86,51,30.37,29.76,16,9,0,0.00
2013-12-15,36,22,17,30,20,16,95,91,77,29.97,29.68,19,12,0,0.00
2013-12-16,28,20,16,26,19,15,95,94,91,30.19,29.98,8,5,0,0.00
2013-12-17,30,27,19,27,25,18,95,91,87,30.15,29.92,6,4,0,0.00
2013-12-18,24,17,13,23,16,12,95,95,94,30.32,29.98,7,5,0,0.00
2013-12-19,45,37,22,31,25,20,95,64,38,30.35,30.16,24,15,0,0.00
2013-12-20,47,45,41,45,34,19,94,67,37,30.15,29.98,19,14,0,0.00
2013-12-21,55,50,46,50,45,-100,94,87,77,30.01,29.83,18,12,0,0.00
2013-12-22,55,49,47,53,46,41,95,90,78,29.96,29.79,21,13,0,0.00
2013-12-27,34,26,19,17,12,3,81,58,41,30.51,30.39,18,11,0,0.00
2013-12-28,44,35,27,20,12,-100,69,43,14,30.41,30.17,19,12,0,0.00
2013-12-29,41,33,29,37,29,4,93,85,21,30.17,29.61,19,10,0,0.00
2013-12-30,29,22,17,26,21,16,95,94,90,30.13,29.85,0,0,0,0.00
2013-12-31,18,16,13,17,15,12,95,94,94,30.40,30.11,0,0,0,0.00
2014-1-1,35,26,15,30,21,14,95,80,56,30.48,30.13,10,2,0,0.00
2014-1-2,32,27,8,29,19,4,95,74,36,30.11,29.58,19,9,0,0.00